Airfield :
LOGIN :

Register | Disclaimer

   EN    FR    IT 

 










Legend :    VFR   Marginal VFR   IFR   Intensive IFR   Very Intensive IFR
Visi :
Ceiling :
>= 8 km
>= 3000ft
5 to 8 km
1000 to 3000 ft
1500m to 5 km
500 to 1000 ft
800 to 1500m
200 to 500 ft
< 800m
< 200 ft
Symbols :   Thunderstorms  Fog  Heavy snow  Heavy precipitations  Wind > 20 kt
SIGMETs :     Misc.  Thunderstorms  Icing  Turbulence  Mountain Waves  Volcanic Ashes






- Airport Elevation : 22 ft
- IATA code : SKG


LGTS - Thessaloniki

CURRENT METAR :
  • 271750Z VRB03KT 9999 FEW030 16/12 Q1014 NOSIG

EXPIRED METARs :
  • 271720Z VRB03KT 9999 FEW030 16/13 Q1014 NOSIG
  • 271650Z 11004KT 9999 FEW030 17/13 Q1014 NOSIG
  • 271620Z VRB03KT 9999 FEW030 18/14 Q1013 NOSIG
  • 271550Z VRB02KT 9999 FEW030 18/14 Q1013 NOSIG
  • 271520Z VRB03KT 9999 FEW030 19/15 Q1013 NOSIG

TAF TAF LGTS
Valid from the 27 at 18:00 until the 28 at 18:00 UTC


271700Z 2718/2818 VRB03KT 9999 FEW025
BECMG 2722/2724 SCT025
PROB40 2802/2806 5000 BR SCT010 SCT020



MET'MAP, your aeronautical weather chart ! - Copyright ORBIFLY December 2007 - Disclaimer

ORBIFLY MET'MAP TEAM :

Programming & Development : Alexandra Zaïnal
Concept & original design : Baudouin d'Aumeries
Assistance for programming : Marc-Olivier Méhu
Technical & hardware support : Manuel Goepfert

Contact : metmap@orbifly.com




SOURCES & CREDITS :

   NOAA